Strona główna
METAR-TAF:

METAR-TAF

Lotnisko :

Meriden-Markham Municipal Airport

Meriden, Connecticut, Stany Zjednoczone

Szerokość geograficzna: 41-30-35N, Długość geograficzna: 072-49-40W, wysokość: 31 m

Aktualna obserwacja pogody

Raport powstał 27 minut temu, godzina 06:53 UTC
Wiatr 6 kt z kierunków zmiennych
Temperatura -6°C
Wilgotność 41%
Ciśnienie 1019 hPa
Widzialność: 16.1 km
Mało chmury na wysokości 11000 ft

METAR: KMMK 250653Z AUTO VRB06KT 10SM FEW110 M06/M17 A3009 RMK AO2 SLP191 T10611172 $

czas: 02:20 (07:20 UTC)


TAF: brakujący

Obserwacja i prognoza pogody dla ponad 4000 lotnisk (raport METAR i TAF).

Dostępne stacje oznaczono żółtymi i czerwonymi punktami na mapie.

Najedź kursorem aby zobaczyć nazwę stacji.

Kliknij aby zobaczyć obserwacje i prognozy pogody.

Aby zmienić mapę: kliknij na zielony przycisk z czarnym krzyżykiem, aby powiększyć; na zielony przycisk z myślnikiem, aby pomniejszyć; na zielone strzałki, aby przejść do map sąsiednich.


METAR-TAF: